Time;durP1;ratioP1;P1;durP2;ratioP2;P2;SDS_P1;SDS_P2;PMS_P1;PMS_P2;Temp;Humidity;BMP_temperature;BMP_pressure;BME280_temperature;BME280_humidity;BME280_pressure;Samples;Min_cycle;Max_cycle;Signal;HPM_P1;HPM_P2
2022/10/08 00:00:51;;;;;;;32.73;13.53;;;;;;;12.14;100.00;96585.91;5042071;28;20224;-72
2022/10/08 00:03:19;;;;;;;29.40;13.18;;;;;;;12.03;100.00;96589.81;5041362;28;20201;-71
2022/10/08 00:05:54;;;;;;;32.13;13.75;;;;;;;12.08;100.00;96581.34;5045733;28;20193;-71
2022/10/08 00:08:21;;;;;;;32.23;13.87;;;;;;;11.95;100.00;96581.09;5045896;28;20196;-72
2022/10/08 00:10:53;;;;;;;30.07;13.37;;;;;;;12.02;100.00;96584.72;5045881;28;20713;-71
2022/10/08 00:13:20;;;;;;;32.92;14.10;;;;;;;11.87;100.00;96578.53;5044965;28;20201;-72
2022/10/08 00:15:46;;;;;;;30.25;13.68;;;;;;;11.90;100.00;96581.66;5045654;28;20208;-71
2022/10/08 00:18:13;;;;;;;28.80;13.33;;;;;;;11.87;100.00;96581.19;5045766;28;20204;-71
2022/10/08 00:20:40;;;;;;;34.10;14.37;;;;;;;11.88;100.00;96575.72;5045198;28;20706;-73
2022/10/08 00:23:06;;;;;;;27.67;13.60;;;;;;;11.94;100.00;96579.47;5045052;28;20215;-70
2022/10/08 00:25:38;;;;;;;33.53;13.30;;;;;;;12.06;100.00;96583.34;5045462;28;20288;-73
2022/10/08 00:28:06;;;;;;;30.77;13.93;;;;;;;12.01;100.00;96575.94;5045310;28;20669;-71
2022/10/08 00:30:35;;;;;;;30.13;12.85;;;;;;;12.10;100.00;96574.88;5045142;28;20220;-71
2022/10/08 00:33:02;;;;;;;27.70;12.57;;;;;;;11.99;100.00;96583.25;5044401;28;20399;-73
2022/10/08 00:35:28;;;;;;;26.77;13.57;;;;;;;11.97;100.00;96579.13;5045594;28;20232;-73
2022/10/08 00:37:55;;;;;;;29.03;12.10;;;;;;;11.87;100.00;96573.25;5045199;28;20669;-71
2022/10/08 00:40:21;;;;;;;27.43;12.47;;;;;;;11.84;100.00;96568.34;5045203;28;20225;-72
2022/10/08 00:42:48;;;;;;;30.80;12.63;;;;;;;11.74;100.00;96573.03;5044713;28;20893;-72
2022/10/08 00:45:16;;;;;;;26.00;12.20;;;;;;;11.85;100.00;96569.97;5044982;28;20201;-72
2022/10/08 00:47:45;;;;;;;24.43;11.57;;;;;;;11.84;100.00;96578.91;5044736;28;20201;-73
2022/10/08 00:50:17;;;;;;;25.07;12.33;;;;;;;11.87;100.00;96570.63;5045078;28;20210;-71
2022/10/08 00:52:46;;;;;;;29.00;13.97;;;;;;;11.85;100.00;96576.09;5044331;28;20209;-73
2022/10/08 00:55:15;;;;;;;29.70;14.40;;;;;;;11.86;100.00;96566.31;5044833;28;20594;-73
2022/10/08 00:57:42;;;;;;;33.60;14.73;;;;;;;11.94;100.00;96558.34;5044660;28;20354;-73
2022/10/08 01:00:12;;;;;;;33.50;14.73;;;;;;;11.93;100.00;96554.88;5044655;28;20874;-73
2022/10/08 01:02:40;;;;;;;33.70;14.07;;;;;;;12.00;100.00;96557.63;5044346;28;20634;-71
2022/10/08 01:05:08;;;;;;;29.57;14.27;;;;;;;11.97;100.00;96558.81;5044812;28;20209;-71
2022/10/08 01:07:44;;;;;;;37.83;14.13;;;;;;;12.08;100.00;96562.84;5044656;28;20207;-74
2022/10/08 01:10:20;;;;;;;32.43;14.60;;;;;;;12.08;100.00;96554.91;5044656;28;20201;-71
2022/10/08 01:12:59;;;;;;;32.30;14.67;;;;;;;12.14;100.00;96554.22;5044063;28;20204;-71
2022/10/08 01:15:33;;;;;;;33.60;14.43;;;;;;;12.12;100.00;96541.19;5043641;28;20212;-72
2022/10/08 01:18:10;;;;;;;33.23;14.57;;;;;;;12.12;100.00;96546.47;5044247;28;20342;-72
2022/10/08 01:20:56;;;;;;;30.30;13.93;;;;;;;12.23;100.00;96540.75;5044532;28;20934;-73
2022/10/08 01:23:56;;;;;;;32.23;15.30;;;;;;;12.25;100.00;96536.91;5043787;28;20889;-71
2022/10/08 01:26:42;;;;;;;34.37;14.70;;;;;;;12.30;100.00;96536.41;5044406;28;20201;-71
2022/10/08 01:29:15;;;;;;;32.37;15.63;;;;;;;12.27;100.00;96534.09;5044375;28;20208;-71
2022/10/08 01:31:44;;;;;;;36.37;15.57;;;;;;;12.27;100.00;96531.44;5044616;28;20232;-71
2022/10/08 01:34:17;;;;;;;37.00;15.30;;;;;;;12.31;100.00;96538.84;5043644;28;20208;-71
2022/10/08 01:36:48;;;;;;;31.77;14.70;;;;;;;12.24;100.00;96530.03;5044158;28;20190;-72
2022/10/08 01:39:17;;;;;;;32.77;15.27;;;;;;;12.32;100.00;96524.66;5044261;28;20582;-73
2022/10/08 01:41:49;;;;;;;33.60;15.77;;;;;;;12.21;100.00;96542.75;5043668;28;20224;-74
2022/10/08 01:44:23;;;;;;;30.92;14.35;;;;;;;12.20;100.00;96541.09;5043395;28;20232;-71
2022/10/08 01:46:51;;;;;;;34.80;15.82;;;;;;;12.27;100.00;96542.00;5044229;28;20201;-71
2022/10/08 01:49:21;;;;;;;32.85;15.20;;;;;;;12.26;100.00;96543.84;5043831;28;20209;-71
2022/10/08 01:51:53;;;;;;;35.10;15.43;;;;;;;12.36;100.00;96536.50;5043823;28;20600;-72
2022/10/08 01:54:21;;;;;;;33.73;14.87;;;;;;;12.30;100.00;96539.84;5043157;28;20665;-71
2022/10/08 01:56:50;;;;;;;39.10;15.53;;;;;;;12.26;100.00;96543.84;5043710;28;20205;-71
2022/10/08 01:59:22;;;;;;;32.45;14.20;;;;;;;12.36;100.00;96533.03;5043928;28;20197;-72
2022/10/08 02:01:56;;;;;;;28.67;13.70;;;;;;;12.24;100.00;96522.09;5045104;28;20283;-72
2022/10/08 02:04:33;;;;;;;28.63;13.48;;;;;;;12.20;100.00;96520.78;5045329;28;20355;-72
2022/10/08 02:07:03;;;;;;;31.15;13.90;;;;;;;12.25;100.00;96528.19;5045439;28;20200;-72
2022/10/08 02:09:34;;;;;;;28.20;13.87;;;;;;;12.18;100.00;96520.16;5045764;28;20197;-72
2022/10/08 02:12:00;;;;;;;30.70;13.93;;;;;;;12.01;100.00;96520.47;5045631;28;20252;-72
2022/10/08 02:14:29;;;;;;;33.60;14.30;;;;;;;12.10;100.00;96532.59;5044714;28;20571;-72
2022/10/08 02:17:05;;;;;;;34.17;14.43;;;;;;;12.12;100.00;96529.78;5044736;28;20582;-71
2022/10/08 02:19:42;;;;;;;32.05;14.77;;;;;;;12.19;100.00;96526.25;5045061;28;20212;-71
2022/10/08 02:22:09;;;;;;;33.57;14.50;;;;;;;12.05;100.00;96524.41;5044881;28;20225;-71
2022/10/08 02:24:40;;;;;;;32.27;14.93;;;;;;;12.14;100.00;96518.03;5044539;28;20197;-71
2022/10/08 02:27:11;;;;;;;38.07;15.13;;;;;;;12.06;100.00;96519.97;5044869;28;20208;-72
2022/10/08 02:29:43;;;;;;;37.07;15.07;;;;;;;12.13;100.00;96516.44;5045166;28;20577;-72
2022/10/08 02:32:17;;;;;;;38.58;16.63;;;;;;;12.14;100.00;96514.59;5044824;28;20221;-72
2022/10/08 02:34:50;;;;;;;39.83;16.57;;;;;;;12.19;100.00;96516.53;5045381;28;20215;-72
2022/10/08 02:37:21;;;;;;;45.00;17.17;;;;;;;12.18;100.00;96524.59;5045160;28;20219;-72
2022/10/08 02:39:54;;;;;;;38.97;17.00;;;;;;;12.25;100.00;96515.78;5044804;28;20682;-72
2022/10/08 02:42:24;;;;;;;40.73;17.87;;;;;;;12.27;100.00;96513.78;5044213;28;20955;-72
2022/10/08 02:44:57;;;;;;;46.70;17.87;;;;;;;12.30;100.00;96510.78;5044956;28;20201;-72
2022/10/08 02:47:29;;;;;;;43.23;17.73;;;;;;;12.31;100.00;96504.50;5044672;28;20673;-72
2022/10/08 02:49:58;;;;;;;41.90;17.80;;;;;;;12.30;100.00;96513.41;5044834;28;20688;-72
2022/10/08 02:52:28;;;;;;;43.10;18.73;;;;;;;12.24;100.00;96510.69;5044148;28;20644;-71
2022/10/08 02:54:56;;;;;;;42.80;19.03;;;;;;;12.29;100.00;96521.53;5044837;28;20204;-71
2022/10/08 02:57:29;;;;;;;42.70;18.88;;;;;;;12.44;100.00;96519.72;5043373;28;20204;-71
2022/10/08 02:59:58;;;;;;;42.05;18.58;;;;;;;12.46;100.00;96523.00;5044750;28;20657;-71
2022/10/08 03:02:31;;;;;;;45.88;19.30;;;;;;;12.49;100.00;96528.75;5043833;28;20279;-71
2022/10/08 03:05:02;;;;;;;42.07;18.13;;;;;;;12.48;100.00;96527.09;5043809;28;20628;-71
2022/10/08 03:07:30;;;;;;;42.90;17.63;;;;;;;12.44;100.00;96519.72;5044280;28;20752;-71
2022/10/08 03:09:59;;;;;;;45.33;18.67;;;;;;;12.49;100.00;96517.38;5044015;28;20235;-71
2022/10/08 03:12:26;;;;;;;50.45;19.98;;;;;;;12.41;100.00;96520.91;5043561;28;20197;-71
2022/10/08 03:14:52;;;;;;;47.10;20.38;;;;;;;12.49;100.00;96522.66;5044326;28;20685;-72
2022/10/08 03:17:25;;;;;;;40.23;18.07;;;;;;;12.68;100.00;96525.56;5043621;28;20212;-72
2022/10/08 03:19:52;;;;;;;43.20;19.63;;;;;;;12.63;100.00;96529.78;5043833;28;20575;-72
2022/10/08 03:22:19;;;;;;;45.33;19.08;;;;;;;12.54;100.00;96531.69;5043719;28;20225;-71
2022/10/08 03:24:45;;;;;;;45.53;19.02;;;;;;;12.54;100.00;96525.56;5043735;28;20208;-71
2022/10/08 03:27:13;;;;;;;46.90;18.97;;;;;;;12.63;100.00;96530.59;5043246;28;20201;-71
2022/10/08 03:29:39;;;;;;;46.17;19.20;;;;;;;12.48;100.00;96528.94;5043696;28;20209;-71
2022/10/08 03:32:06;;;;;;;43.17;19.37;;;;;;;12.56;100.00;96537.59;5043484;28;20720;-71
2022/10/08 03:34:33;;;;;;;42.50;18.60;;;;;;;12.68;100.00;96537.94;5043237;28;20201;-71
2022/10/08 03:37:00;;;;;;;44.15;17.60;;;;;;;12.61;100.00;96532.56;5043541;28;20205;-71
2022/10/08 03:39:26;;;;;;;39.90;18.17;;;;;;;12.65;100.00;96533.84;5045363;28;20197;-71
2022/10/08 03:41:53;;;;;;;41.78;17.63;;;;;;;12.61;100.00;96535.22;5047464;28;20602;-71
2022/10/08 03:44:19;;;;;;;43.93;17.90;;;;;;;12.59;100.00;96533.75;5047543;28;20196;-71
2022/10/08 03:46:46;;;;;;;41.80;18.77;;;;;;;12.65;100.00;96538.31;5047715;28;20733;-71
2022/10/08 03:49:12;;;;;;;40.63;18.77;;;;;;;12.57;100.00;96535.78;5047576;28;20217;-71
2022/10/08 03:51:40;;;;;;;41.17;18.20;;;;;;;12.67;100.00;96537.16;5047543;28;20232;-71
2022/10/08 03:54:07;;;;;;;41.37;17.33;;;;;;;12.53;100.00;96539.78;5047021;28;20204;-71
2022/10/08 03:56:33;;;;;;;38.70;17.93;;;;;;;12.46;100.00;96544.16;5047740;28;20203;-71
2022/10/08 03:59:02;;;;;;;41.33;18.63;;;;;;;12.42;100.00;96549.00;5047398;28;20681;-72
2022/10/08 04:01:29;;;;;;;40.30;18.03;;;;;;;12.51;100.00;96547.06;5047561;28;20717;-72
2022/10/08 04:03:56;;;;;;;41.97;17.93;;;;;;;12.52;100.00;96548.72;5046835;28;20209;-71
2022/10/08 04:06:23;;;;;;;35.42;15.68;;;;;;;12.38;100.00;96545.03;5047063;28;20444;-71
2022/10/08 04:08:51;;;;;;;40.53;18.80;;;;;;;12.46;100.00;96544.97;5047296;28;20201;-71
2022/10/08 04:11:18;;;;;;;41.28;18.27;;;;;;;12.49;100.00;96544.63;5047345;28;20559;-71
2022/10/08 04:13:45;;;;;;;38.78;17.95;;;;;;;12.48;100.00;96548.25;5046690;28;20201;-71
2022/10/08 04:16:14;;;;;;;44.22;19.15;;;;;;;12.53;100.00;96540.59;5047541;28;20209;-71
2022/10/08 04:18:40;;;;;;;35.80;17.70;;;;;;;12.49;100.00;96544.63;5047508;28;20235;-71
2022/10/08 04:21:08;;;;;;;40.10;17.23;;;;;;;12.56;100.00;96544.72;5047237;28;20233;-71
2022/10/08 04:23:38;;;;;;;38.43;18.37;;;;;;;12.41;100.00;96541.22;5046558;28;20197;-71
2022/10/08 04:26:07;;;;;;;37.20;17.80;;;;;;;12.48;100.00;96548.25;5047016;28;20216;-71
2022/10/08 04:28:35;;;;;;;39.67;16.10;;;;;;;12.42;100.00;96542.88;5047084;28;20201;-71
2022/10/08 04:31:04;;;;;;;34.90;16.23;;;;;;;12.41;100.00;96550.00;5046982;28;20227;-71
2022/10/08 04:33:32;;;;;;;35.97;16.92;;;;;;;12.28;100.00;96549.78;5046659;28;20197;-71
2022/10/08 04:35:59;;;;;;;37.05;16.88;;;;;;;12.19;100.00;96548.22;5047274;28;20198;-72
2022/10/08 04:38:26;;;;;;;32.88;16.30;;;;;;;12.18;100.00;96541.28;5046609;28;20680;-71
2022/10/08 04:41:02;;;;;;;38.08;17.13;;;;;;;12.32;100.00;96543.13;5046760;28;20225;-71
2022/10/08 04:43:30;;;;;;;40.03;16.90;;;;;;;12.22;100.00;96547.84;5046699;28;20259;-71
2022/10/08 04:45:56;;;;;;;36.00;16.38;;;;;;;12.18;100.00;96546.56;5046879;28;20228;-71
2022/10/08 04:48:23;;;;;;;34.90;16.15;;;;;;;12.15;100.00;96547.94;5046283;28;20213;-71
2022/10/08 04:50:54;;;;;;;41.67;16.73;;;;;;;12.21;100.00;96540.94;5046232;28;20221;-71
2022/10/08 04:53:21;;;;;;;40.20;17.88;;;;;;;12.15;100.00;96545.28;5046075;28;20204;-71
2022/10/08 04:55:47;;;;;;;36.40;16.38;;;;;;;12.14;100.00;96549.75;5046645;28;20209;-71
2022/10/08 04:58:14;;;;;;;37.42;16.58;;;;;;;12.14;100.00;96554.22;5046031;28;20205;-71
2022/10/08 05:00:42;;;;;;;37.00;16.35;;;;;;;12.20;100.00;96543.75;5046160;28;20225;-71
2022/10/08 05:03:08;;;;;;;42.60;16.50;;;;;;;12.12;100.00;96554.41;5045787;28;20229;-71
2022/10/08 05:05:39;;;;;;;37.90;15.90;;;;;;;12.19;100.00;96548.22;5046452;28;20197;-71
2022/10/08 05:08:05;;;;;;;38.20;17.30;;;;;;;12.07;100.00;96553.31;5046457;28;20297;-71
2022/10/08 05:10:32;;;;;;;40.47;17.47;;;;;;;12.12;100.00;96557.03;5046168;28;20224;-71
2022/10/08 05:12:58;;;;;;;39.70;16.70;;;;;;;12.13;100.00;96557.84;5045630;28;20206;-71
2022/10/08 05:15:25;;;;;;;35.35;16.38;;;;;;;12.14;100.00;96559.50;5046186;28;20209;-71
2022/10/08 05:17:53;;;;;;;39.33;18.13;;;;;;;12.24;100.00;96567.00;5046303;28;20212;-71
2022/10/08 05:20:19;;;;;;;40.47;17.17;;;;;;;12.18;100.00;96565.06;5046066;28;20229;-72
2022/10/08 05:22:46;;;;;;;36.88;16.55;;;;;;;12.22;100.00;96560.25;5044953;28;20693;-72
2022/10/08 05:25:12;;;;;;;39.90;17.25;;;;;;;12.19;100.00;96561.44;5045463;28;20220;-72
2022/10/08 05:27:39;;;;;;;35.63;16.70;;;;;;;12.18;100.00;96566.88;5046041;28;20204;-72
2022/10/08 05:30:08;;;;;;;35.50;16.70;;;;;;;12.27;100.00;96561.34;5046054;28;20588;-72
2022/10/08 05:32:34;;;;;;;33.07;15.80;;;;;;;12.16;100.00;96564.41;5044986;28;20200;-72
2022/10/08 05:35:02;;;;;;;38.73;16.57;;;;;;;12.31;100.00;96570.56;5046040;28;20209;-72
2022/10/08 05:37:29;;;;;;;39.40;16.70;;;;;;;12.23;100.00;96580.38;5045938;28;20212;-71
2022/10/08 05:39:55;;;;;;;35.40;16.60;;;;;;;12.21;100.00;96569.19;5045502;28;20205;-71
2022/10/08 05:42:22;;;;;;;39.40;17.67;;;;;;;12.17;100.00;96575.81;5045347;28;20569;-71
2022/10/08 05:44:48;;;;;;;39.30;16.67;;;;;;;12.26;100.00;96572.91;5045479;28;20669;-71
2022/10/08 05:47:15;;;;;;;45.08;16.55;;;;;;;12.32;100.00;96568.72;5045544;28;20429;-71
2022/10/08 05:49:41;;;;;;;36.13;16.45;;;;;;;12.28;100.00;96573.56;5044300;28;20209;-68
2022/10/08 05:52:09;;;;;;;42.43;17.43;;;;;;;12.43;100.00;96577.03;5043589;28;20221;-71
2022/10/08 05:54:36;;;;;;;35.22;16.83;;;;;;;12.37;100.00;96569.84;5043327;28;20295;-71
2022/10/08 05:57:02;;;;;;;41.88;17.15;;;;;;;12.41;100.00;96573.78;5043855;28;20208;-71
2022/10/08 05:59:29;;;;;;;38.30;16.55;;;;;;;12.48;100.00;96573.88;5044051;28;20197;-70
2022/10/08 06:01:55;;;;;;;41.17;16.83;;;;;;;12.52;100.00;96581.25;5042915;28;20229;-71
2022/10/08 06:04:22;;;;;;;36.92;16.48;;;;;;;12.53;100.00;96582.91;5043259;28;20578;-71
2022/10/08 06:06:49;;;;;;;39.42;17.75;;;;;;;12.54;100.00;96583.72;5043430;28;20677;-71
2022/10/08 06:09:18;;;;;;;49.78;20.13;;;;;;;12.65;100.00;96581.44;5044080;28;20205;-70
2022/10/08 06:11:46;;;;;;;44.83;18.38;;;;;;;12.67;100.00;96583.94;5043367;28;20708;-70
2022/10/08 06:14:15;;;;;;;53.95;20.33;;;;;;;12.75;100.00;96582.00;5043345;28;20203;-70
2022/10/08 06:16:42;;;;;;;53.90;20.87;;;;;;;12.77;100.00;96583.47;5043746;28;20201;-70
2022/10/08 06:19:09;;;;;;;45.15;18.75;;;;;;;12.81;100.00;96597.16;5043450;28;20201;-69
2022/10/08 06:21:36;;;;;;;47.28;19.38;;;;;;;12.92;100.00;96599.38;5043124;28;20235;-70
2022/10/08 06:24:05;;;;;;;39.92;19.27;;;;;;;13.04;100.00;96604.00;5042778;28;20682;-71
2022/10/08 06:26:35;;;;;;;38.08;17.75;;;;;;;13.13;100.00;96607.41;5043395;28;20657;-71
2022/10/08 06:29:04;;;;;;;41.60;18.63;;;;;;;13.09;100.00;96604.28;5043532;28;20586;-71
2022/10/08 06:31:30;;;;;;;35.97;17.02;;;;;;;13.15;100.00;96605.38;5043201;28;20316;-70
2022/10/08 06:33:58;;;;;;;39.17;17.38;;;;;;;13.21;100.00;96607.28;5042231;28;20585;-69
2022/10/08 06:36:26;;;;;;;34.85;17.77;;;;;;;13.31;100.00;96613.13;5043210;28;20197;-69
2022/10/08 06:38:55;;;;;;;36.70;16.95;;;;;;;13.46;100.00;96607.59;5043064;28;20209;-71
2022/10/08 06:41:22;;;;;;;37.95;17.15;;;;;;;13.51;100.00;96607.88;5043087;28;20984;-71
2022/10/08 06:43:50;;;;;;;37.72;18.58;;;;;;;13.58;100.00;96610.59;5042344;28;20538;-72
2022/10/08 06:46:18;;;;;;;38.47;16.92;;;;;;;13.58;100.00;96619.38;5043106;28;20207;-71
2022/10/08 06:48:45;;;;;;;38.53;17.45;;;;;;;13.67;100.00;96626.22;5042832;28;20215;-69
2022/10/08 06:51:14;;;;;;;37.72;17.45;;;;;;;13.66;100.00;96629.06;5042696;28;20221;-71
2022/10/08 06:53:41;;;;;;;39.63;17.52;;;;;;;13.90;100.00;96633.97;5042391;28;20292;-72
2022/10/08 06:56:13;;;;;;;34.78;17.23;;;;;;;14.13;100.00;96631.03;5042651;28;20209;-71
2022/10/08 06:58:40;;;;;;;40.45;17.05;;;;;;;14.07;100.00;96634.38;5042775;28;20228;-69
2022/10/08 07:01:12;;;;;;;41.75;17.90;;;;;;;14.20;100.00;96636.38;5042544;28;20251;-70
2022/10/08 07:03:39;;;;;;;35.75;17.35;;;;;;;14.20;100.00;96641.69;5041685;28;20221;-72
2022/10/08 07:06:08;;;;;;;41.22;16.80;;;;;;;14.41;100.00;96639.00;5042558;28;20209;-71
2022/10/08 07:08:35;;;;;;;40.08;16.83;;;;;;;14.08;100.00;96651.16;5042844;28;20205;-71
2022/10/08 07:11:06;;;;;;;42.17;19.05;;;;;;;14.41;100.00;96652.28;5042469;28;20227;-71
2022/10/08 07:13:33;;;;;;;39.70;18.42;;;;;;;14.28;100.00;96652.16;5041942;28;20665;-72
2022/10/08 07:16:04;;;;;;;41.53;18.02;;;;;;;14.38;100.00;96655.31;5042337;28;20201;-72
2022/10/08 07:18:33;;;;;;;33.22;16.42;;;;;;;14.29;100.00;96659.09;5042217;28;20284;-71
2022/10/08 07:21:00;;;;;;;40.05;17.38;;;;;;;14.34;100.00;96662.00;5042144;28;20701;-69
2022/10/08 07:23:26;;;;;;;35.92;14.80;;;;;;;14.28;100.00;96670.72;5041541;28;20240;-70
2022/10/08 07:25:58;;;;;;;37.83;18.15;;;;;;;14.49;100.00;96678.69;5042680;28;20200;-72
2022/10/08 07:28:26;;;;;;;42.55;17.70;;;;;;;14.45;100.00;96672.13;5042517;28;20201;-71
2022/10/08 07:30:52;;;;;;;44.65;18.70;;;;;;;14.44;100.00;96665.97;5042177;28;20225;-71
2022/10/08 07:33:19;;;;;;;38.22;17.77;;;;;;;14.54;100.00;96671.78;5041588;28;20455;-71
2022/10/08 07:35:47;;;;;;;39.92;17.75;;;;;;;14.67;100.00;96672.69;5042640;28;20208;-71
2022/10/08 07:38:17;;;;;;;45.33;18.65;;;;;;;14.75;100.00;96675.25;5042393;28;20561;-72
2022/10/08 07:40:44;;;;;;;39.08;17.33;;;;;;;14.78;100.00;96682.81;5042419;28;20308;-71
2022/10/08 07:43:10;;;;;;;36.95;17.65;;;;;;;14.77;100.00;96681.16;5041181;28;20709;-71
2022/10/08 07:45:44;;;;;;;42.20;19.63;;;;;;;14.84;100.00;96674.09;5042157;28;20661;-69
2022/10/08 07:48:10;;;;;;;41.35;19.30;;;;;;;14.77;100.00;96673.19;5041909;28;20631;-71
2022/10/08 07:50:37;;;;;;;38.30;17.40;;;;;;;14.78;100.00;96674.03;5042140;28;20224;-71
2022/10/08 07:53:05;;;;;;;44.85;19.30;;;;;;;14.86;100.00;96680.00;5041866;28;20559;-72
2022/10/08 07:55:31;;;;;;;40.15;18.02;;;;;;;14.86;100.00;96672.03;5042122;28;20572;-70
2022/10/08 07:57:58;;;;;;;38.70;17.83;;;;;;;14.84;100.00;96684.69;5041908;28;20205;-71
2022/10/08 08:00:24;;;;;;;36.33;17.50;;;;;;;14.96;100.00;96682.34;5042341;28;20221;-72
2022/10/08 08:02:51;;;;;;;37.50;17.30;;;;;;;15.01;100.00;96675.44;5041142;28;20607;-70
2022/10/08 08:05:17;;;;;;;36.17;15.80;;;;;;;14.98;100.00;96681.13;5041584;28;20205;-68
2022/10/08 08:07:44;;;;;;;31.80;14.43;;;;;;;14.88;100.00;96690.41;5042112;28;20669;-71
2022/10/08 08:10:12;;;;;;;38.55;17.85;;;;;;;14.94;100.00;96687.00;5041790;28;20216;-71
2022/10/08 08:12:38;;;;;;;39.75;17.33;;;;;;;14.98;100.00;96683.78;5041199;28;20193;-71
2022/10/08 08:15:06;;;;;;;36.97;17.45;;;;;;;15.13;100.00;96681.03;5042145;28;20625;-72
2022/10/08 08:17:34;;;;;;;38.47;17.25;;;;;;;15.24;100.00;96684.81;5041671;28;20534;-71
2022/10/08 08:20:00;;;;;;;34.65;16.55;;;;;;;15.20;100.00;96687.19;5041702;28;20361;-72
2022/10/08 08:22:27;;;;;;;34.47;16.90;;;;;;;15.24;100.00;96684.81;5041292;28;20679;-69
2022/10/08 08:24:53;;;;;;;35.28;16.10;;;;;;;15.34;100.00;96692.44;5042580;28;20209;-71
2022/10/08 08:27:21;;;;;;;35.08;16.48;;;;;;;15.47;100.00;96693.31;5045251;28;20207;-69
2022/10/08 08:29:48;;;;;;;33.92;16.02;;;;;;;15.47;100.00;96697.81;5045746;28;20586;-72
2022/10/08 08:32:15;;;;;;;33.33;16.15;;;;;;;15.49;100.00;96691.31;5045115;28;20533;-71
2022/10/08 08:34:41;;;;;;;34.08;15.85;;;;;;;15.66;100.00;96691.81;5045110;28;20251;-71
2022/10/08 08:37:07;;;;;;;36.70;16.67;;;;;;;15.83;100.00;96698.41;5045501;28;20205;-70
2022/10/08 08:39:34;;;;;;;36.33;17.48;;;;;;;15.95;100.00;96695.81;5045153;28;20220;-71
2022/10/08 08:42:22;;;;;;;39.30;17.30;;;;;;;16.03;100.00;96687.66;5045025;28;20229;-70
2022/10/08 08:44:57;;;;;;;32.47;17.13;;;;;;;16.07;100.00;96694.19;5045363;28;20205;-71
2022/10/08 08:47:30;;;;;;;38.45;16.77;;;;;;;16.01;100.00;96689.72;5045127;28;20224;-71
2022/10/08 08:50:01;;;;;;;39.95;17.02;;;;;;;16.11;100.00;96703.41;5045098;28;20213;-72
2022/10/08 08:52:32;;;;;;;34.42;15.25;;;;;;;16.15;100.00;96694.06;5044851;28;20207;-69
2022/10/08 08:55:00;;;;;;;30.45;15.95;;;;;;;16.25;100.00;96706.94;5045082;28;20584;-71
2022/10/08 08:57:34;;;;;;;30.50;14.98;;;;;;;16.50;100.00;96698.25;5045373;28;20669;-71
2022/10/08 09:00:07;;;;;;;28.08;13.73;;;;;;;16.51;100.00;96706.03;5044785;28;20293;-70
2022/10/08 09:02:38;;;;;;;26.63;14.35;;;;;;;16.42;100.00;96711.75;5044066;28;20229;-72
2022/10/08 09:05:10;;;;;;;29.98;13.25;;;;;;;16.45;100.00;96707.88;5045126;28;20205;-71
2022/10/08 09:07:42;;;;;;;27.25;13.48;;;;;;;16.63;100.00;96698.28;5044868;28;20209;-70
2022/10/08 09:10:14;;;;;;;28.05;13.57;;;;;;;16.72;100.00;96708.50;5044435;28;20886;-72
2022/10/08 09:12:43;;;;;;;24.73;13.45;;;;;;;16.79;100.00;96698.69;5044043;28;20204;-69
2022/10/08 09:15:18;;;;;;;31.52;13.93;;;;;;;16.94;100.00;96701.16;5044449;28;20209;-71
2022/10/08 09:17:49;;;;;;;30.45;14.60;;;;;;;17.03;100.00;96706.09;5044461;28;20220;-70
2022/10/08 09:20:17;;;;;;;26.60;12.63;;;;;;;17.21;100.00;96707.09;5044427;28;20223;-71
2022/10/08 09:22:45;;;;;;;23.98;12.27;;;;;;;17.17;100.00;96703.19;5043945;28;20225;-72
2022/10/08 09:25:15;;;;;;;22.45;11.73;;;;;;;17.47;100.00;96700.94;5044614;28;20212;-71
2022/10/08 09:27:46;;;;;;;26.00;11.20;;;;;;;17.38;100.00;96705.66;5044390;28;20201;-71
2022/10/08 09:30:33;;;;;;;17.63;10.18;;;;;;;17.22;100.00;96702.56;5044264;28;20692;-70
2022/10/08 09:33:03;;;;;;;23.40;10.13;;;;;;;16.87;100.00;96700.34;5043798;28;20291;-72
2022/10/08 09:35:32;;;;;;;26.45;10.82;;;;;;;16.99;100.00;96704.81;5044265;28;20201;-71
2022/10/08 09:37:59;;;;;;;21.63;9.82;;;;;;;17.01;100.00;96708.13;5042564;28;20208;-69
2022/10/08 09:40:27;;;;;;;25.80;9.65;;;;;;;16.91;100.00;96714.88;5044063;28;20688;-69
2022/10/08 09:43:12;;;;;;;17.92;9.57;;;;;;;16.71;100.00;96708.72;5043490;28;20320;-71
2022/10/08 09:45:42;;;;;;;25.30;10.45;;;;;;;16.58;100.00;96714.81;5044149;28;20215;-72
2022/10/08 09:48:17;;;;;;;20.38;10.50;;;;;;;16.54;100.00;96718.09;5043529;28;20209;-72
2022/10/08 09:50:51;;;;;;;21.50;10.73;;;;;;;16.41;100.00;96719.91;5043890;28;20216;-68
2022/10/08 09:53:19;;;;;;;22.70;9.85;;;;;;;16.32;100.00;96724.59;5043852;28;20223;-71
2022/10/08 09:55:58;;;;;;;19.73;10.52;;;;;;;16.33;100.00;96723.59;5043939;28;20300;-72
2022/10/08 09:58:28;;;;;;;16.25;8.55;;;;;;;16.15;100.00;96728.63;5044083;28;20224;-71
2022/10/08 10:01:00;;;;;;;20.40;8.82;;;;;;;16.20;100.00;96726.16;5043548;28;20225;-69
2022/10/08 10:03:28;;;;;;;22.70;9.18;;;;;;;16.12;100.00;96721.03;5043196;28;20260;-71
2022/10/08 10:05:57;;;;;;;17.60;8.43;;;;;;;16.30;100.00;96717.84;5043728;28;20216;-72
2022/10/08 10:08:47;;;;;;;18.23;8.10;;;;;;;16.46;100.00;96720.97;5043819;28;20648;-72
2022/10/08 10:11:20;;;;;;;23.25;7.85;;;;;;;16.41;100.00;96727.88;5043809;28;20267;-72
2022/10/08 10:13:49;;;;;;;24.45;9.13;;;;;;;16.26;100.00;96722.72;5043277;28;20210;-71
2022/10/08 10:16:23;;;;;;;19.67;8.00;;;;;;;16.39;100.00;96720.09;5043651;28;20201;-72
2022/10/08 10:18:55;;;;;;;17.35;8.48;;;;;;;16.34;100.00;96724.41;5043703;28;20580;-69
2022/10/08 10:21:30;;;;;;;17.63;9.00;;;;;;;16.31;100.00;96717.63;5043192;28;20312;-72
2022/10/08 10:24:10;;;;;;;20.98;9.18;;;;;;;16.34;100.00;96714.56;5042519;28;20238;-69
2022/10/08 10:26:42;;;;;;;23.75;8.45;;;;;;;16.16;100.00;96722.25;5043360;28;20207;-72
2022/10/08 10:29:13;;;;;;;18.60;8.23;;;;;;;16.15;100.00;96720.63;5043318;28;20555;-71
2022/10/08 10:31:46;;;;;;;17.50;7.57;;;;;;;16.31;100.00;96716.84;5043091;28;20388;-73
2022/10/08 10:34:17;;;;;;;18.70;9.20;;;;;;;16.32;100.00;96713.13;5042378;28;20637;-71
2022/10/08 10:36:50;;;;;;;23.02;8.95;;;;;;;16.26;100.00;96719.28;5043653;28;20231;-71
2022/10/08 10:39:27;;;;;;;17.45;6.68;;;;;;;16.29;100.00;96717.00;5043275;28;20635;-71
2022/10/08 10:42:04;;;;;;;17.30;6.70;;;;;;;16.38;100.00;96715.00;5043161;28;20716;-72
2022/10/08 10:44:43;;;;;;;22.90;8.55;;;;;;;16.33;100.00;96712.13;5042453;28;20247;-72
2022/10/08 10:47:11;;;;;;;20.98;9.20;;;;;;;16.37;100.00;96711.53;5042992;28;20197;-71
2022/10/08 10:49:42;;;;;;;18.48;8.75;;;;;;;16.34;100.00;96714.56;5042462;28;20217;-72
2022/10/08 10:52:32;;;;;;;18.23;8.65;;;;;;;16.42;100.00;96717.06;5042802;28;20229;-69
2022/10/08 10:55:16;;;;;;;16.27;8.57;;;;;;;16.56;100.00;96710.75;5042369;28;20236;-72
2022/10/08 10:57:58;;;;;;;23.38;9.13;;;;;;;16.62;100.00;96702.78;5042865;28;20237;-69
2022/10/08 11:00:30;;;;;;;25.20;9.25;;;;;;;16.67;100.00;96704.81;5042847;28;20224;-72
2022/10/08 11:03:02;;;;;;;23.33;9.40;;;;;;;16.58;100.00;96712.16;5041976;28;20205;-69
2022/10/08 11:05:32;;;;;;;26.50;8.73;;;;;;;16.53;100.00;96708.47;5042531;28;20209;-72
2022/10/08 11:08:16;;;;;;;18.83;6.22;;;;;;;16.51;100.00;96710.53;5043100;28;20206;-72
2022/10/08 11:11:03;;;;;;;7.65;3.72;;;;;;;16.54;98.94;96704.81;5042459;28;20296;-72
2022/10/08 11:13:44;;;;;;;6.55;3.58;;;;;;;16.43;97.67;96710.69;5041646;28;20305;-69
2022/10/08 11:16:24;;;;;;;10.88;3.25;;;;;;;16.50;96.90;96704.38;5042644;28;20229;-71
2022/10/08 11:18:54;;;;;;;15.60;4.60;;;;;;;16.55;94.84;96711.78;5042415;28;20227;-72
2022/10/08 11:21:36;;;;;;;7.97;3.63;;;;;;;16.58;93.81;96712.16;5042273;28;20220;-71